Archival Weather

Chicago O'Hare International

Chicago, Illinois (KORD)

Report from: Wednesday, July 19, 2023 11:51 AM CDT
Current time: Tuesday, June 18, 2024 8:28 AM CDT

Current weather – Weather history – Daily summaries
Weather forecast

Temperature27.2°C (81.0°F)
Heat index27.5°C (81.6°F)
Dew point13.9°C (57.0°F)
Winds 5 kts (2.6 m/s, 5.8 mph) East-Northeast (60°)
Visibility10 mi. (16.1 km)
Clouds Few clouds 5,500 ft. (1,676 m)
Few clouds 15,000 ft. (4,572 m)
Few clouds 25,000 ft. (7,620 m)
Altimeter30.06 in.Hg (1018 mB)
Relative humidity44 %
Density altitude1,492 ft. (455 m)
Sea-level pressure101.7 kPa (1017 mB, 30.04 in.Hg)
Remarks Automated weather observing station with precipitation discriminator
Flight conditions Visual Meteorological Conditions
Raw dataKORD 191651Z 06005KT 10SM FEW055 FEW150 FEW250 27/14 A3006 RMK AO2 SLP173 T02720139
An error has occurred. This application may no longer respond until reloaded. Reload 🗙